sensor_id;sensor_type;location;lat;lon;timestamp;temperature;humidity
29713;DHT22;16623;53.632;10.016;2022-08-20T00:01:43;18.90;99.90
29713;DHT22;16623;53.632;10.016;2022-08-20T00:04:10;18.90;99.90
29713;DHT22;16623;53.632;10.016;2022-08-20T00:06:35;18.90;99.90
29713;DHT22;16623;53.632;10.016;2022-08-20T00:09:01;18.90;99.90
29713;DHT22;16623;53.632;10.016;2022-08-20T00:11:27;18.90;99.90
29713;DHT22;16623;53.632;10.016;2022-08-20T00:13:57;18.90;99.90
29713;DHT22;16623;53.632;10.016;2022-08-20T00:16:25;18.90;99.90
29713;DHT22;16623;53.632;10.016;2022-08-20T00:18:51;18.90;99.90
29713;DHT22;16623;53.632;10.016;2022-08-20T00:21:19;18.90;99.90
29713;DHT22;16623;53.632;10.016;2022-08-20T00:23:48;18.80;99.90
29713;DHT22;16623;53.632;10.016;2022-08-20T00:26:14;18.80;99.90
29713;DHT22;16623;53.632;10.016;2022-08-20T00:28:40;18.90;99.90
29713;DHT22;16623;53.632;10.016;2022-08-20T00:31:08;18.90;99.90
29713;DHT22;16623;53.632;10.016;2022-08-20T00:33:34;18.90;99.90
29713;DHT22;16623;53.632;10.016;2022-08-20T00:36:00;18.90;99.90
29713;DHT22;16623;53.632;10.016;2022-08-20T00:38:32;18.90;99.90
29713;DHT22;16623;53.632;10.016;2022-08-20T00:40:59;18.90;99.90
29713;DHT22;16623;53.632;10.016;2022-08-20T00:43:41;19.00;99.90
29713;DHT22;16623;53.632;10.016;2022-08-20T00:48:40;18.90;99.90
29713;DHT22;16623;53.632;10.016;2022-08-20T00:51:46;19.00;99.90
29713;DHT22;16623;53.632;10.016;2022-08-20T00:54:29;19.00;99.90
29713;DHT22;16623;53.632;10.016;2022-08-20T00:57:06;19.00;99.90
29713;DHT22;16623;53.632;10.016;2022-08-20T00:59:35;19.00;99.90
29713;DHT22;16623;53.632;10.016;2022-08-20T01:02:04;19.00;99.90
29713;DHT22;16623;53.632;10.016;2022-08-20T01:04:31;19.10;99.90
29713;DHT22;16623;53.632;10.016;2022-08-20T01:06:59;19.00;99.90
29713;DHT22;16623;53.632;10.016;2022-08-20T01:09:25;19.00;99.90
29713;DHT22;16623;53.632;10.016;2022-08-20T01:11:51;19.00;99.90
29713;DHT22;16623;53.632;10.016;2022-08-20T01:14:18;19.00;99.90
29713;DHT22;16623;53.632;10.016;2022-08-20T01:17:00;19.00;99.90
29713;DHT22;16623;53.632;10.016;2022-08-20T01:19:36;19.00;99.90
29713;DHT22;16623;53.632;10.016;2022-08-20T01:22:03;19.00;99.90
29713;DHT22;16623;53.632;10.016;2022-08-20T01:24:51;19.00;99.90
29713;DHT22;16623;53.632;10.016;2022-08-20T01:27:19;19.00;99.90
29713;DHT22;16623;53.632;10.016;2022-08-20T01:29:46;19.00;99.90
29713;DHT22;16623;53.632;10.016;2022-08-20T01:32:11;19.00;99.90
29713;DHT22;16623;53.632;10.016;2022-08-20T01:34:37;19.00;99.90
29713;DHT22;16623;53.632;10.016;2022-08-20T01:37:03;19.00;99.90
29713;DHT22;16623;53.632;10.016;2022-08-20T01:39:33;19.00;99.90
29713;DHT22;16623;53.632;10.016;2022-08-20T01:45:05;19.00;99.90
29713;DHT22;16623;53.632;10.016;2022-08-20T01:47:32;19.00;99.90
29713;DHT22;16623;53.632;10.016;2022-08-20T01:50:02;19.00;99.90
29713;DHT22;16623;53.632;10.016;2022-08-20T01:52:40;19.10;99.90
29713;DHT22;16623;53.632;10.016;2022-08-20T01:55:08;19.00;99.90
29713;DHT22;16623;53.632;10.016;2022-08-20T01:57:35;18.90;99.90
29713;DHT22;16623;53.632;10.016;2022-08-20T02:00:05;19.00;99.90
29713;DHT22;16623;53.632;10.016;2022-08-20T02:02:32;19.00;99.90
29713;DHT22;16623;53.632;10.016;2022-08-20T02:04:58;19.00;99.90
29713;DHT22;16623;53.632;10.016;2022-08-20T02:07:25;19.00;99.90
29713;DHT22;16623;53.632;10.016;2022-08-20T02:09:50;19.00;99.90
29713;DHT22;16623;53.632;10.016;2022-08-20T02:12:16;19.00;99.90
29713;DHT22;16623;53.632;10.016;2022-08-20T02:14:52;19.00;99.90
29713;DHT22;16623;53.632;10.016;2022-08-20T02:17:20;19.00;99.90
29713;DHT22;16623;53.632;10.016;2022-08-20T02:19:59;18.90;99.90
29713;DHT22;16623;53.632;10.016;2022-08-20T02:22:44;19.00;99.90
29713;DHT22;16623;53.632;10.016;2022-08-20T02:25:13;19.00;99.90
29713;DHT22;16623;53.632;10.016;2022-08-20T02:27:41;19.00;99.90
29713;DHT22;16623;53.632;10.016;2022-08-20T02:30:32;19.00;99.90
29713;DHT22;16623;53.632;10.016;2022-08-20T02:32:58;19.00;99.90
29713;DHT22;16623;53.632;10.016;2022-08-20T02:35:24;19.00;99.90
29713;DHT22;16623;53.632;10.016;2022-08-20T02:37:50;19.00;99.90
29713;DHT22;16623;53.632;10.016;2022-08-20T02:40:18;19.00;99.90
29713;DHT22;16623;53.632;10.016;2022-08-20T02:42:45;19.00;99.90
29713;DHT22;16623;53.632;10.016;2022-08-20T02:45:14;19.00;99.90
29713;DHT22;16623;53.632;10.016;2022-08-20T02:47:40;19.00;99.90
29713;DHT22;16623;53.632;10.016;2022-08-20T02:50:12;18.90;99.90
29713;DHT22;16623;53.632;10.016;2022-08-20T02:52:39;18.90;99.90
29713;DHT22;16623;53.632;10.016;2022-08-20T02:55:06;18.90;99.90
29713;DHT22;16623;53.632;10.016;2022-08-20T02:57:31;19.00;99.90
29713;DHT22;16623;53.632;10.016;2022-08-20T02:59:57;19.00;99.90
29713;DHT22;16623;53.632;10.016;2022-08-20T03:02:23;19.00;99.90
29713;DHT22;16623;53.632;10.016;2022-08-20T03:04:49;19.00;99.90
29713;DHT22;16623;53.632;10.016;2022-08-20T03:07:15;19.00;99.90
29713;DHT22;16623;53.632;10.016;2022-08-20T03:09:40;19.00;99.90
29713;DHT22;16623;53.632;10.016;2022-08-20T03:12:07;19.10;99.90
29713;DHT22;16623;53.632;10.016;2022-08-20T03:14:33;19.10;99.90
29713;DHT22;16623;53.632;10.016;2022-08-20T03:17:00;19.10;99.90
29713;DHT22;16623;53.632;10.016;2022-08-20T03:19:26;19.10;99.90
29713;DHT22;16623;53.632;10.016;2022-08-20T03:21:52;19.00;99.90
29713;DHT22;16623;53.632;10.016;2022-08-20T03:24:17;19.00;99.90
29713;DHT22;16623;53.632;10.016;2022-08-20T03:26:43;19.00;99.90
29713;DHT22;16623;53.632;10.016;2022-08-20T03:29:09;19.00;99.90
29713;DHT22;16623;53.632;10.016;2022-08-20T03:31:35;19.00;99.90
29713;DHT22;16623;53.632;10.016;2022-08-20T03:34:00;19.10;99.90
29713;DHT22;16623;53.632;10.016;2022-08-20T03:36:27;19.00;99.90
29713;DHT22;16623;53.632;10.016;2022-08-20T03:39:00;19.00;99.90
29713;DHT22;16623;53.632;10.016;2022-08-20T03:41:25;19.00;99.90
29713;DHT22;16623;53.632;10.016;2022-08-20T03:43:51;19.00;99.90
29713;DHT22;16623;53.632;10.016;2022-08-20T03:46:17;19.00;99.90
29713;DHT22;16623;53.632;10.016;2022-08-20T03:48:42;19.00;99.90
29713;DHT22;16623;53.632;10.016;2022-08-20T03:51:08;19.00;99.90
29713;DHT22;16623;53.632;10.016;2022-08-20T03:53:34;18.90;99.90
29713;DHT22;16623;53.632;10.016;2022-08-20T03:56:03;19.00;99.90
29713;DHT22;16623;53.632;10.016;2022-08-20T03:58:30;19.00;99.90
29713;DHT22;16623;53.632;10.016;2022-08-20T04:00:56;19.00;99.90
29713;DHT22;16623;53.632;10.016;2022-08-20T04:03:22;19.00;99.90
29713;DHT22;16623;53.632;10.016;2022-08-20T04:05:49;19.00;99.90
29713;DHT22;16623;53.632;10.016;2022-08-20T04:08:17;18.90;99.90
29713;DHT22;16623;53.632;10.016;2022-08-20T04:10:45;19.00;99.90
29713;DHT22;16623;53.632;10.016;2022-08-20T04:13:12;19.00;99.90
29713;DHT22;16623;53.632;10.016;2022-08-20T04:15:41;19.10;99.90
29713;DHT22;16623;53.632;10.016;2022-08-20T04:18:10;19.10;99.90
29713;DHT22;16623;53.632;10.016;2022-08-20T04:20:39;19.10;99.90
29713;DHT22;16623;53.632;10.016;2022-08-20T04:23:05;19.20;99.90
29713;DHT22;16623;53.632;10.016;2022-08-20T04:25:32;19.20;99.90
29713;DHT22;16623;53.632;10.016;2022-08-20T04:28:00;19.10;99.90
29713;DHT22;16623;53.632;10.016;2022-08-20T04:30:27;19.20;99.90
29713;DHT22;16623;53.632;10.016;2022-08-20T04:32:53;19.20;99.90
29713;DHT22;16623;53.632;10.016;2022-08-20T04:35:20;19.20;99.90
29713;DHT22;16623;53.632;10.016;2022-08-20T04:37:48;19.20;99.90
29713;DHT22;16623;53.632;10.016;2022-08-20T04:40:17;19.20;99.90
29713;DHT22;16623;53.632;10.016;2022-08-20T04:43:02;19.30;99.90
29713;DHT22;16623;53.632;10.016;2022-08-20T04:45:30;19.30;99.90
29713;DHT22;16623;53.632;10.016;2022-08-20T04:47:56;19.30;99.90
29713;DHT22;16623;53.632;10.016;2022-08-20T04:50:22;19.30;99.90
29713;DHT22;16623;53.632;10.016;2022-08-20T04:52:47;19.30;99.90
29713;DHT22;16623;53.632;10.016;2022-08-20T04:55:14;19.30;99.90
29713;DHT22;16623;53.632;10.016;2022-08-20T04:57:42;19.30;99.90
29713;DHT22;16623;53.632;10.016;2022-08-20T05:00:12;19.30;99.90
29713;DHT22;16623;53.632;10.016;2022-08-20T05:02:39;19.30;99.90
29713;DHT22;16623;53.632;10.016;2022-08-20T05:05:05;19.30;99.90
29713;DHT22;16623;53.632;10.016;2022-08-20T05:07:41;19.40;99.90
29713;DHT22;16623;53.632;10.016;2022-08-20T05:10:09;19.40;99.90
29713;DHT22;16623;53.632;10.016;2022-08-20T05:12:35;19.40;99.90
29713;DHT22;16623;53.632;10.016;2022-08-20T05:15:01;19.50;99.90
29713;DHT22;16623;53.632;10.016;2022-08-20T05:17:27;19.50;99.90
29713;DHT22;16623;53.632;10.016;2022-08-20T05:19:53;19.50;99.90
29713;DHT22;16623;53.632;10.016;2022-08-20T05:22:19;19.50;99.90
29713;DHT22;16623;53.632;10.016;2022-08-20T05:24:44;19.50;99.90
29713;DHT22;16623;53.632;10.016;2022-08-20T05:27:10;19.50;99.90
29713;DHT22;16623;53.632;10.016;2022-08-20T05:29:35;19.60;99.90
29713;DHT22;16623;53.632;10.016;2022-08-20T05:32:01;19.60;99.90
29713;DHT22;16623;53.632;10.016;2022-08-20T05:34:27;19.60;99.90
29713;DHT22;16623;53.632;10.016;2022-08-20T05:36:53;19.60;99.90
29713;DHT22;16623;53.632;10.016;2022-08-20T05:39:20;19.60;99.90
29713;DHT22;16623;53.632;10.016;2022-08-20T05:41:47;19.60;99.90
29713;DHT22;16623;53.632;10.016;2022-08-20T05:44:16;19.70;99.90
29713;DHT22;16623;53.632;10.016;2022-08-20T05:46:43;19.60;99.90
29713;DHT22;16623;53.632;10.016;2022-08-20T05:49:11;19.70;99.90
29713;DHT22;16623;53.632;10.016;2022-08-20T05:51:38;19.80;99.90
29713;DHT22;16623;53.632;10.016;2022-08-20T05:54:05;19.90;99.90
29713;DHT22;16623;53.632;10.016;2022-08-20T05:56:31;19.90;99.90
29713;DHT22;16623;53.632;10.016;2022-08-20T05:58:59;19.90;99.90
29713;DHT22;16623;53.632;10.016;2022-08-20T06:01:33;20.00;99.90
29713;DHT22;16623;53.632;10.016;2022-08-20T06:03:59;20.00;99.90
29713;DHT22;16623;53.632;10.016;2022-08-20T06:06:43;20.00;99.90
29713;DHT22;16623;53.632;10.016;2022-08-20T06:09:09;20.00;99.90
29713;DHT22;16623;53.632;10.016;2022-08-20T06:11:34;20.00;99.90
29713;DHT22;16623;53.632;10.016;2022-08-20T06:14:00;20.00;99.90
29713;DHT22;16623;53.632;10.016;2022-08-20T06:16:27;20.00;99.90
29713;DHT22;16623;53.632;10.016;2022-08-20T06:18:52;20.00;99.90
29713;DHT22;16623;53.632;10.016;2022-08-20T06:21:18;20.00;99.90
29713;DHT22;16623;53.632;10.016;2022-08-20T06:23:43;20.00;99.90
29713;DHT22;16623;53.632;10.016;2022-08-20T06:26:10;20.10;99.90
29713;DHT22;16623;53.632;10.016;2022-08-20T06:28:35;20.00;99.90
29713;DHT22;16623;53.632;10.016;2022-08-20T06:31:01;20.00;99.90
29713;DHT22;16623;53.632;10.016;2022-08-20T06:33:27;20.00;99.90
29713;DHT22;16623;53.632;10.016;2022-08-20T06:35:53;20.00;99.90
29713;DHT22;16623;53.632;10.016;2022-08-20T06:38:20;20.00;99.90
29713;DHT22;16623;53.632;10.016;2022-08-20T06:40:45;20.00;99.90
29713;DHT22;16623;53.632;10.016;2022-08-20T06:43:11;20.10;99.90
29713;DHT22;16623;53.632;10.016;2022-08-20T06:45:38;20.10;99.90
29713;DHT22;16623;53.632;10.016;2022-08-20T06:48:12;20.10;99.90
29713;DHT22;16623;53.632;10.016;2022-08-20T06:50:39;20.20;99.90
29713;DHT22;16623;53.632;10.016;2022-08-20T06:53:06;20.20;99.90
29713;DHT22;16623;53.632;10.016;2022-08-20T06:55:32;20.30;99.90
29713;DHT22;16623;53.632;10.016;2022-08-20T06:57:59;20.40;99.90
29713;DHT22;16623;53.632;10.016;2022-08-20T07:00:26;20.50;99.90
29713;DHT22;16623;53.632;10.016;2022-08-20T07:02:52;20.60;99.90
29713;DHT22;16623;53.632;10.016;2022-08-20T07:05:17;20.60;99.90
29713;DHT22;16623;53.632;10.016;2022-08-20T07:07:47;20.70;99.90
29713;DHT22;16623;53.632;10.016;2022-08-20T07:10:14;20.80;99.90
29713;DHT22;16623;53.632;10.016;2022-08-20T07:12:39;20.80;99.90
29713;DHT22;16623;53.632;10.016;2022-08-20T07:15:07;20.90;99.90
29713;DHT22;16623;53.632;10.016;2022-08-20T07:17:33;21.00;99.90
29713;DHT22;16623;53.632;10.016;2022-08-20T07:20:06;21.00;99.90
29713;DHT22;16623;53.632;10.016;2022-08-20T07:22:32;21.10;99.90
29713;DHT22;16623;53.632;10.016;2022-08-20T07:25:03;21.20;99.90
29713;DHT22;16623;53.632;10.016;2022-08-20T07:27:29;21.20;99.90
29713;DHT22;16623;53.632;10.016;2022-08-20T07:29:55;21.30;99.90
29713;DHT22;16623;53.632;10.016;2022-08-20T07:32:39;21.30;99.90
29713;DHT22;16623;53.632;10.016;2022-08-20T07:35:11;21.40;99.90
29713;DHT22;16623;53.632;10.016;2022-08-20T07:37:42;21.50;99.90
29713;DHT22;16623;53.632;10.016;2022-08-20T07:40:11;21.50;99.90
29713;DHT22;16623;53.632;10.016;2022-08-20T07:42:37;21.60;99.90
29713;DHT22;16623;53.632;10.016;2022-08-20T07:45:08;21.60;99.90
29713;DHT22;16623;53.632;10.016;2022-08-20T07:47:39;21.50;99.90
29713;DHT22;16623;53.632;10.016;2022-08-20T07:50:07;21.70;99.90
29713;DHT22;16623;53.632;10.016;2022-08-20T07:52:32;21.70;99.90
29713;DHT22;16623;53.632;10.016;2022-08-20T07:55:05;21.80;99.90
29713;DHT22;16623;53.632;10.016;2022-08-20T07:57:31;21.80;99.90
29713;DHT22;16623;53.632;10.016;2022-08-20T07:59:57;21.80;99.90
29713;DHT22;16623;53.632;10.016;2022-08-20T08:02:25;21.80;99.90
29713;DHT22;16623;53.632;10.016;2022-08-20T08:04:51;21.90;99.90
29713;DHT22;16623;53.632;10.016;2022-08-20T08:07:17;21.90;99.90
29713;DHT22;16623;53.632;10.016;2022-08-20T08:09:43;22.00;99.90
29713;DHT22;16623;53.632;10.016;2022-08-20T08:12:10;22.00;99.90
29713;DHT22;16623;53.632;10.016;2022-08-20T08:14:39;22.10;99.90
29713;DHT22;16623;53.632;10.016;2022-08-20T08:17:07;22.20;99.90
29713;DHT22;16623;53.632;10.016;2022-08-20T08:19:38;22.20;99.90
29713;DHT22;16623;53.632;10.016;2022-08-20T08:22:07;22.20;99.90
29713;DHT22;16623;53.632;10.016;2022-08-20T08:24:38;22.20;99.90
29713;DHT22;16623;53.632;10.016;2022-08-20T08:27:04;22.20;99.90
29713;DHT22;16623;53.632;10.016;2022-08-20T08:29:30;22.20;99.90
29713;DHT22;16623;53.632;10.016;2022-08-20T08:31:55;22.30;99.90
29713;DHT22;16623;53.632;10.016;2022-08-20T08:34:21;22.40;99.90
29713;DHT22;16623;53.632;10.016;2022-08-20T08:36:51;22.40;99.90
29713;DHT22;16623;53.632;10.016;2022-08-20T08:39:17;22.50;99.90
29713;DHT22;16623;53.632;10.016;2022-08-20T08:41:48;22.50;99.90
29713;DHT22;16623;53.632;10.016;2022-08-20T08:44:27;22.60;99.90
29713;DHT22;16623;53.632;10.016;2022-08-20T08:47:02;22.60;99.90
29713;DHT22;16623;53.632;10.016;2022-08-20T08:49:35;22.70;99.90
29713;DHT22;16623;53.632;10.016;2022-08-20T08:52:08;22.70;99.90
29713;DHT22;16623;53.632;10.016;2022-08-20T08:54:38;22.80;99.90
29713;DHT22;16623;53.632;10.016;2022-08-20T08:57:08;22.80;99.90
29713;DHT22;16623;53.632;10.016;2022-08-20T08:59:34;22.80;99.90
29713;DHT22;16623;53.632;10.016;2022-08-20T09:01:59;22.90;99.90
29713;DHT22;16623;53.632;10.016;2022-08-20T09:04:39;22.80;99.90
29713;DHT22;16623;53.632;10.016;2022-08-20T09:07:08;22.80;99.90
29713;DHT22;16623;53.632;10.016;2022-08-20T09:09:39;22.90;99.90
29713;DHT22;16623;53.632;10.016;2022-08-20T09:12:18;23.00;99.90
29713;DHT22;16623;53.632;10.016;2022-08-20T09:14:48;23.10;99.90
29713;DHT22;16623;53.632;10.016;2022-08-20T09:17:16;23.30;99.90
29713;DHT22;16623;53.632;10.016;2022-08-20T09:19:42;23.20;99.90
29713;DHT22;16623;53.632;10.016;2022-08-20T09:22:12;23.10;99.90
29713;DHT22;16623;53.632;10.016;2022-08-20T09:24:39;23.10;99.90
29713;DHT22;16623;53.632;10.016;2022-08-20T09:27:05;23.20;99.90
29713;DHT22;16623;53.632;10.016;2022-08-20T09:29:30;23.00;99.90
29713;DHT22;16623;53.632;10.016;2022-08-20T09:32:09;23.00;99.90
29713;DHT22;16623;53.632;10.016;2022-08-20T09:34:44;23.10;99.90
29713;DHT22;16623;53.632;10.016;2022-08-20T09:37:11;23.10;99.90
29713;DHT22;16623;53.632;10.016;2022-08-20T09:39:36;23.20;99.90
29713;DHT22;16623;53.632;10.016;2022-08-20T09:44:34;23.20;99.90
29713;DHT22;16623;53.632;10.016;2022-08-20T09:46:59;23.30;99.90
29713;DHT22;16623;53.632;10.016;2022-08-20T09:49:25;23.30;99.90
29713;DHT22;16623;53.632;10.016;2022-08-20T09:51:50;23.40;99.90
29713;DHT22;16623;53.632;10.016;2022-08-20T09:54:16;23.60;99.90
29713;DHT22;16623;53.632;10.016;2022-08-20T09:56:41;23.80;99.90
29713;DHT22;16623;53.632;10.016;2022-08-20T09:59:07;24.10;99.90
29713;DHT22;16623;53.632;10.016;2022-08-20T10:01:33;24.10;99.90
29713;DHT22;16623;53.632;10.016;2022-08-20T10:03:59;24.10;99.90
29713;DHT22;16623;53.632;10.016;2022-08-20T10:06:24;24.10;99.90
29713;DHT22;16623;53.632;10.016;2022-08-20T10:08:51;24.20;99.90
29713;DHT22;16623;53.632;10.016;2022-08-20T10:11:16;24.40;99.90
29713;DHT22;16623;53.632;10.016;2022-08-20T10:13:42;24.60;99.90
29713;DHT22;16623;53.632;10.016;2022-08-20T10:16:07;24.60;99.90
29713;DHT22;16623;53.632;10.016;2022-08-20T10:18:34;24.50;99.90
29713;DHT22;16623;53.632;10.016;2022-08-20T10:21:00;24.90;99.90
29713;DHT22;16623;53.632;10.016;2022-08-20T10:23:26;25.40;99.90
29713;DHT22;16623;53.632;10.016;2022-08-20T10:25:51;25.60;99.90
29713;DHT22;16623;53.632;10.016;2022-08-20T10:28:17;25.70;99.90
29713;DHT22;16623;53.632;10.016;2022-08-20T10:30:42;26.30;99.90
29713;DHT22;16623;53.632;10.016;2022-08-20T10:33:09;26.60;99.90
29713;DHT22;16623;53.632;10.016;2022-08-20T10:35:35;27.10;99.90
29713;DHT22;16623;53.632;10.016;2022-08-20T10:38:01;27.50;99.90
29713;DHT22;16623;53.632;10.016;2022-08-20T10:40:27;27.50;99.90
29713;DHT22;16623;53.632;10.016;2022-08-20T10:42:52;27.50;99.90
29713;DHT22;16623;53.632;10.016;2022-08-20T10:45:20;27.20;99.90
29713;DHT22;16623;53.632;10.016;2022-08-20T10:47:45;26.80;99.90
29713;DHT22;16623;53.632;10.016;2022-08-20T10:50:15;26.60;99.90
29713;DHT22;16623;53.632;10.016;2022-08-20T10:52:44;26.60;99.90
29713;DHT22;16623;53.632;10.016;2022-08-20T10:55:10;26.40;99.90
29713;DHT22;16623;53.632;10.016;2022-08-20T10:57:38;26.10;99.90
29713;DHT22;16623;53.632;10.016;2022-08-20T11:00:05;26.10;99.90
29713;DHT22;16623;53.632;10.016;2022-08-20T11:02:33;25.70;99.90
29713;DHT22;16623;53.632;10.016;2022-08-20T11:04:59;25.40;99.90
29713;DHT22;16623;53.632;10.016;2022-08-20T11:07:30;25.10;99.90
29713;DHT22;16623;53.632;10.016;2022-08-20T11:09:57;24.60;99.90
29713;DHT22;16623;53.632;10.016;2022-08-20T11:12:23;24.50;99.90
29713;DHT22;16623;53.632;10.016;2022-08-20T11:14:50;24.10;99.90
29713;DHT22;16623;53.632;10.016;2022-08-20T11:17:24;24.00;99.90
29713;DHT22;16623;53.632;10.016;2022-08-20T11:19:50;24.10;99.90
29713;DHT22;16623;53.632;10.016;2022-08-20T11:22:16;23.90;99.90
29713;DHT22;16623;53.632;10.016;2022-08-20T11:24:42;23.80;99.90
29713;DHT22;16623;53.632;10.016;2022-08-20T11:27:08;23.80;99.90
29713;DHT22;16623;53.632;10.016;2022-08-20T11:29:35;23.90;99.90
29713;DHT22;16623;53.632;10.016;2022-08-20T11:32:02;23.80;99.90
29713;DHT22;16623;53.632;10.016;2022-08-20T11:34:27;24.00;99.90
29713;DHT22;16623;53.632;10.016;2022-08-20T11:36:53;24.20;99.90
29713;DHT22;16623;53.632;10.016;2022-08-20T11:39:19;24.40;99.90
29713;DHT22;16623;53.632;10.016;2022-08-20T11:41:45;24.30;99.90
29713;DHT22;16623;53.632;10.016;2022-08-20T11:44:10;24.40;99.90
29713;DHT22;16623;53.632;10.016;2022-08-20T11:46:37;24.60;99.90
29713;DHT22;16623;53.632;10.016;2022-08-20T11:49:03;24.80;99.90
29713;DHT22;16623;53.632;10.016;2022-08-20T11:51:29;24.90;99.90
29713;DHT22;16623;53.632;10.016;2022-08-20T11:53:55;24.80;99.90
29713;DHT22;16623;53.632;10.016;2022-08-20T11:56:20;24.70;99.90
29713;DHT22;16623;53.632;10.016;2022-08-20T11:58:46;24.50;99.90
29713;DHT22;16623;53.632;10.016;2022-08-20T12:01:12;24.50;99.90
29713;DHT22;16623;53.632;10.016;2022-08-20T12:03:38;24.50;99.90
29713;DHT22;16623;53.632;10.016;2022-08-20T12:06:04;24.40;99.90
29713;DHT22;16623;53.632;10.016;2022-08-20T12:08:31;24.40;99.90
29713;DHT22;16623;53.632;10.016;2022-08-20T12:11:00;24.30;99.90
29713;DHT22;16623;53.632;10.016;2022-08-20T12:13:29;24.30;99.90
29713;DHT22;16623;53.632;10.016;2022-08-20T12:15:55;24.50;99.90
29713;DHT22;16623;53.632;10.016;2022-08-20T12:18:21;24.60;99.90
29713;DHT22;16623;53.632;10.016;2022-08-20T12:20:47;24.60;99.70
29713;DHT22;16623;53.632;10.016;2022-08-20T12:23:12;24.70;98.70
29713;DHT22;16623;53.632;10.016;2022-08-20T12:25:39;24.80;98.70
29713;DHT22;16623;53.632;10.016;2022-08-20T12:28:04;24.90;98.20
29713;DHT22;16623;53.632;10.016;2022-08-20T12:30:31;25.00;98.40
29713;DHT22;16623;53.632;10.016;2022-08-20T12:32:57;25.10;97.30
29713;DHT22;16623;53.632;10.016;2022-08-20T12:35:24;25.20;97.00
29713;DHT22;16623;53.632;10.016;2022-08-20T12:37:51;25.20;96.30
29713;DHT22;16623;53.632;10.016;2022-08-20T12:40:21;25.20;95.90
29713;DHT22;16623;53.632;10.016;2022-08-20T12:42:47;25.10;95.20
29713;DHT22;16623;53.632;10.016;2022-08-20T12:45:14;24.90;95.80
29713;DHT22;16623;53.632;10.016;2022-08-20T12:47:42;24.90;95.80
29713;DHT22;16623;53.632;10.016;2022-08-20T12:50:11;24.90;94.50
29713;DHT22;16623;53.632;10.016;2022-08-20T12:52:38;24.80;94.70
29713;DHT22;16623;53.632;10.016;2022-08-20T12:55:06;24.60;94.40
29713;DHT22;16623;53.632;10.016;2022-08-20T12:57:47;24.50;94.30
29713;DHT22;16623;53.632;10.016;2022-08-20T13:00:17;24.00;95.00
29713;DHT22;16623;53.632;10.016;2022-08-20T13:02:45;24.10;95.50
29713;DHT22;16623;53.632;10.016;2022-08-20T13:05:11;24.30;96.10
29713;DHT22;16623;53.632;10.016;2022-08-20T13:07:37;24.40;95.70
29713;DHT22;16623;53.632;10.016;2022-08-20T13:10:05;24.50;95.50
29713;DHT22;16623;53.632;10.016;2022-08-20T13:12:31;24.40;96.40
29713;DHT22;16623;53.632;10.016;2022-08-20T13:14:56;24.40;96.60
29713;DHT22;16623;53.632;10.016;2022-08-20T13:17:22;24.50;97.00
29713;DHT22;16623;53.632;10.016;2022-08-20T13:19:48;24.70;97.20
29713;DHT22;16623;53.632;10.016;2022-08-20T13:22:14;24.80;97.40
29713;DHT22;16623;53.632;10.016;2022-08-20T13:24:40;25.00;97.10
29713;DHT22;16623;53.632;10.016;2022-08-20T13:27:12;24.90;96.90
29713;DHT22;16623;53.632;10.016;2022-08-20T13:29:38;24.90;97.30
29713;DHT22;16623;53.632;10.016;2022-08-20T13:32:09;24.90;97.10
29713;DHT22;16623;53.632;10.016;2022-08-20T13:34:34;24.90;96.80
29713;DHT22;16623;53.632;10.016;2022-08-20T13:37:00;24.70;96.30
29713;DHT22;16623;53.632;10.016;2022-08-20T13:39:25;24.30;97.20
29713;DHT22;16623;53.632;10.016;2022-08-20T13:41:51;24.40;97.00
29713;DHT22;16623;53.632;10.016;2022-08-20T13:44:17;24.40;96.30
29713;DHT22;16623;53.632;10.016;2022-08-20T13:46:42;24.40;96.30
29713;DHT22;16623;53.632;10.016;2022-08-20T13:49:08;24.50;95.80
29713;DHT22;16623;53.632;10.016;2022-08-20T13:51:33;24.60;95.40
29713;DHT22;16623;53.632;10.016;2022-08-20T13:53:59;24.50;95.50
29713;DHT22;16623;53.632;10.016;2022-08-20T13:56:24;24.40;95.90
29713;DHT22;16623;53.632;10.016;2022-08-20T13:58:49;24.40;95.50
29713;DHT22;16623;53.632;10.016;2022-08-20T14:01:15;24.30;95.30
29713;DHT22;16623;53.632;10.016;2022-08-20T14:03:41;24.30;95.60
29713;DHT22;16623;53.632;10.016;2022-08-20T14:06:06;24.50;95.60
29713;DHT22;16623;53.632;10.016;2022-08-20T14:08:34;24.60;94.50
29713;DHT22;16623;53.632;10.016;2022-08-20T14:11:00;24.70;94.60
29713;DHT22;16623;53.632;10.016;2022-08-20T14:13:26;24.60;94.50
29713;DHT22;16623;53.632;10.016;2022-08-20T14:15:53;24.50;93.80
29713;DHT22;16623;53.632;10.016;2022-08-20T14:18:19;24.60;92.60
29713;DHT22;16623;53.632;10.016;2022-08-20T14:20:45;24.60;92.30
29713;DHT22;16623;53.632;10.016;2022-08-20T14:23:10;24.50;92.50
29713;DHT22;16623;53.632;10.016;2022-08-20T14:25:36;24.30;92.50
29713;DHT22;16623;53.632;10.016;2022-08-20T14:28:10;24.40;92.20
29713;DHT22;16623;53.632;10.016;2022-08-20T14:30:36;24.40;91.50
29713;DHT22;16623;53.632;10.016;2022-08-20T14:33:01;24.20;91.20
29713;DHT22;16623;53.632;10.016;2022-08-20T14:35:27;24.20;91.90
29713;DHT22;16623;53.632;10.016;2022-08-20T14:37:53;24.20;91.60
29713;DHT22;16623;53.632;10.016;2022-08-20T14:40:22;24.00;91.30
29713;DHT22;16623;53.632;10.016;2022-08-20T14:42:48;24.20;90.90
29713;DHT22;16623;53.632;10.016;2022-08-20T14:45:15;24.30;89.40
29713;DHT22;16623;53.632;10.016;2022-08-20T14:47:47;24.30;87.40
29713;DHT22;16623;53.632;10.016;2022-08-20T14:50:17;24.40;85.40
29713;DHT22;16623;53.632;10.016;2022-08-20T14:52:44;24.40;85.60
29713;DHT22;16623;53.632;10.016;2022-08-20T14:55:16;24.50;89.10
29713;DHT22;16623;53.632;10.016;2022-08-20T14:57:43;24.50;87.80
29713;DHT22;16623;53.632;10.016;2022-08-20T15:00:11;24.50;87.60
29713;DHT22;16623;53.632;10.016;2022-08-20T15:02:38;24.50;86.60
29713;DHT22;16623;53.632;10.016;2022-08-20T15:05:05;24.40;85.20
29713;DHT22;16623;53.632;10.016;2022-08-20T15:07:33;24.30;85.80
29713;DHT22;16623;53.632;10.016;2022-08-20T15:09:59;24.20;88.00
29713;DHT22;16623;53.632;10.016;2022-08-20T15:12:26;24.20;89.10
29713;DHT22;16623;53.632;10.016;2022-08-20T15:14:52;24.20;88.80
29713;DHT22;16623;53.632;10.016;2022-08-20T15:17:20;24.10;87.90
29713;DHT22;16623;53.632;10.016;2022-08-20T15:19:46;23.90;87.80
29713;DHT22;16623;53.632;10.016;2022-08-20T15:22:12;23.80;86.70
29713;DHT22;16623;53.632;10.016;2022-08-20T15:24:37;23.70;88.00
29713;DHT22;16623;53.632;10.016;2022-08-20T15:27:22;23.80;90.10